sensor_id;sensor_type;location;lat;lon;timestamp;P1;durP1;ratioP1;P2;durP2;ratioP2
70132;SDS011;57495;49.922;7.966;2022-10-22T00:00:25;8.35;;;4.00;;
70132;SDS011;57495;49.922;7.966;2022-10-22T00:02:27;9.00;;;3.75;;
70132;SDS011;57495;49.922;7.966;2022-10-22T00:04:28;10.57;;;4.50;;
70132;SDS011;57495;49.922;7.966;2022-10-22T00:06:30;9.93;;;3.97;;
70132;SDS011;57495;49.922;7.966;2022-10-22T00:08:31;7.95;;;4.10;;
70132;SDS011;57495;49.922;7.966;2022-10-22T00:10:33;8.90;;;4.10;;
70132;SDS011;57495;49.922;7.966;2022-10-22T00:12:34;7.50;;;3.30;;
70132;SDS011;57495;49.922;7.966;2022-10-22T00:14:36;7.32;;;3.80;;
70132;SDS011;57495;49.922;7.966;2022-10-22T00:16:39;6.93;;;3.87;;
70132;SDS011;57495;49.922;7.966;2022-10-22T00:18:40;7.95;;;3.50;;
70132;SDS011;57495;49.922;7.966;2022-10-22T00:20:42;7.75;;;3.67;;
70132;SDS011;57495;49.922;7.966;2022-10-22T00:22:43;8.95;;;3.30;;
70132;SDS011;57495;49.922;7.966;2022-10-22T00:24:45;8.52;;;3.58;;
70132;SDS011;57495;49.922;7.966;2022-10-22T00:26:46;7.57;;;3.63;;
70132;SDS011;57495;49.922;7.966;2022-10-22T00:28:48;8.98;;;3.90;;
70132;SDS011;57495;49.922;7.966;2022-10-22T00:30:54;8.52;;;4.38;;
70132;SDS011;57495;49.922;7.966;2022-10-22T00:32:58;10.55;;;4.47;;
70132;SDS011;57495;49.922;7.966;2022-10-22T00:34:59;10.43;;;4.18;;
70132;SDS011;57495;49.922;7.966;2022-10-22T00:37:01;7.50;;;3.80;;
70132;SDS011;57495;49.922;7.966;2022-10-22T00:39:02;19.42;;;5.22;;
70132;SDS011;57495;49.922;7.966;2022-10-22T00:41:04;7.53;;;3.47;;
70132;SDS011;57495;49.922;7.966;2022-10-22T00:43:08;7.88;;;3.72;;
70132;SDS011;57495;49.922;7.966;2022-10-22T00:45:15;6.00;;;3.08;;
70132;SDS011;57495;49.922;7.966;2022-10-22T00:47:19;8.93;;;2.83;;
70132;SDS011;57495;49.922;7.966;2022-10-22T00:49:25;8.20;;;3.58;;
70132;SDS011;57495;49.922;7.966;2022-10-22T00:51:27;7.05;;;3.15;;
70132;SDS011;57495;49.922;7.966;2022-10-22T00:53:33;8.18;;;2.90;;
70132;SDS011;57495;49.922;7.966;2022-10-22T00:55:36;8.63;;;3.15;;
70132;SDS011;57495;49.922;7.966;2022-10-22T00:57:40;6.30;;;2.77;;
70132;SDS011;57495;49.922;7.966;2022-10-22T00:59:42;9.23;;;3.05;;
70132;SDS011;57495;49.922;7.966;2022-10-22T01:01:44;8.38;;;2.53;;
70132;SDS011;57495;49.922;7.966;2022-10-22T01:03:46;9.07;;;2.92;;
70132;SDS011;57495;49.922;7.966;2022-10-22T01:05:52;8.10;;;3.35;;
70132;SDS011;57495;49.922;7.966;2022-10-22T01:07:56;6.57;;;3.57;;
70132;SDS011;57495;49.922;7.966;2022-10-22T01:09:59;9.85;;;4.00;;
70132;SDS011;57495;49.922;7.966;2022-10-22T01:12:08;7.68;;;3.70;;
70132;SDS011;57495;49.922;7.966;2022-10-22T01:14:16;9.43;;;3.70;;
70132;SDS011;57495;49.922;7.966;2022-10-22T01:16:26;8.25;;;3.55;;
70132;SDS011;57495;49.922;7.966;2022-10-22T01:18:36;8.37;;;4.43;;
70132;SDS011;57495;49.922;7.966;2022-10-22T01:20:59;10.40;;;4.10;;
70132;SDS011;57495;49.922;7.966;2022-10-22T01:23:12;9.43;;;3.40;;
70132;SDS011;57495;49.922;7.966;2022-10-22T01:25:27;7.30;;;3.35;;
70132;SDS011;57495;49.922;7.966;2022-10-22T01:27:38;8.90;;;3.78;;
70132;SDS011;57495;49.922;7.966;2022-10-22T01:29:46;6.17;;;3.13;;
70132;SDS011;57495;49.922;7.966;2022-10-22T01:31:52;6.45;;;3.20;;
70132;SDS011;57495;49.922;7.966;2022-10-22T01:33:59;8.75;;;3.47;;
70132;SDS011;57495;49.922;7.966;2022-10-22T01:36:03;6.85;;;2.35;;
70132;SDS011;57495;49.922;7.966;2022-10-22T01:38:06;9.75;;;2.55;;
70132;SDS011;57495;49.922;7.966;2022-10-22T01:40:11;7.10;;;2.50;;
70132;SDS011;57495;49.922;7.966;2022-10-22T01:42:16;7.85;;;2.80;;
70132;SDS011;57495;49.922;7.966;2022-10-22T01:44:24;10.43;;;2.25;;
70132;SDS011;57495;49.922;7.966;2022-10-22T01:46:28;6.18;;;2.20;;
70132;SDS011;57495;49.922;7.966;2022-10-22T01:48:33;6.35;;;2.13;;
70132;SDS011;57495;49.922;7.966;2022-10-22T01:50:44;4.97;;;2.27;;
70132;SDS011;57495;49.922;7.966;2022-10-22T01:53:04;6.20;;;1.92;;
70132;SDS011;57495;49.922;7.966;2022-10-22T01:55:17;6.57;;;1.60;;
70132;SDS011;57495;49.922;7.966;2022-10-22T01:57:25;9.45;;;2.33;;
70132;SDS011;57495;49.922;7.966;2022-10-22T01:59:36;5.05;;;1.80;;
70132;SDS011;57495;49.922;7.966;2022-10-22T02:01:51;6.17;;;1.33;;
70132;SDS011;57495;49.922;7.966;2022-10-22T02:03:59;4.93;;;1.50;;
70132;SDS011;57495;49.922;7.966;2022-10-22T02:06:07;4.78;;;1.70;;
70132;SDS011;57495;49.922;7.966;2022-10-22T02:08:15;5.07;;;1.60;;
70132;SDS011;57495;49.922;7.966;2022-10-22T02:10:19;6.57;;;2.05;;
70132;SDS011;57495;49.922;7.966;2022-10-22T02:12:22;6.33;;;1.57;;
70132;SDS011;57495;49.922;7.966;2022-10-22T02:14:26;7.68;;;2.28;;
70132;SDS011;57495;49.922;7.966;2022-10-22T02:16:30;5.80;;;2.10;;
70132;SDS011;57495;49.922;7.966;2022-10-22T02:18:37;5.30;;;1.25;;
70132;SDS011;57495;49.922;7.966;2022-10-22T02:20:42;7.07;;;1.63;;
70132;SDS011;57495;49.922;7.966;2022-10-22T02:22:44;4.87;;;1.67;;
70132;SDS011;57495;49.922;7.966;2022-10-22T02:24:47;7.20;;;1.88;;
70132;SDS011;57495;49.922;7.966;2022-10-22T02:26:51;10.13;;;2.13;;
70132;SDS011;57495;49.922;7.966;2022-10-22T02:29:02;5.38;;;1.65;;
70132;SDS011;57495;49.922;7.966;2022-10-22T02:31:12;3.30;;;1.20;;
70132;SDS011;57495;49.922;7.966;2022-10-22T02:33:18;6.60;;;1.37;;
70132;SDS011;57495;49.922;7.966;2022-10-22T02:35:25;5.55;;;1.77;;
70132;SDS011;57495;49.922;7.966;2022-10-22T02:37:27;4.85;;;1.20;;
70132;SDS011;57495;49.922;7.966;2022-10-22T02:39:29;5.45;;;1.13;;
70132;SDS011;57495;49.922;7.966;2022-10-22T02:41:32;5.90;;;1.45;;
70132;SDS011;57495;49.922;7.966;2022-10-22T02:43:38;7.50;;;1.30;;
70132;SDS011;57495;49.922;7.966;2022-10-22T02:45:41;7.35;;;1.33;;
70132;SDS011;57495;49.922;7.966;2022-10-22T02:47:43;4.43;;;1.30;;
70132;SDS011;57495;49.922;7.966;2022-10-22T02:49:44;8.48;;;1.67;;
70132;SDS011;57495;49.922;7.966;2022-10-22T02:51:47;4.45;;;1.45;;
70132;SDS011;57495;49.922;7.966;2022-10-22T02:53:48;6.07;;;1.37;;
70132;SDS011;57495;49.922;7.966;2022-10-22T02:55:50;5.25;;;0.93;;
70132;SDS011;57495;49.922;7.966;2022-10-22T02:57:51;4.65;;;1.23;;
70132;SDS011;57495;49.922;7.966;2022-10-22T02:59:53;5.35;;;1.63;;
70132;SDS011;57495;49.922;7.966;2022-10-22T03:01:54;5.55;;;1.02;;
70132;SDS011;57495;49.922;7.966;2022-10-22T03:03:56;6.53;;;1.30;;
70132;SDS011;57495;49.922;7.966;2022-10-22T03:05:57;3.38;;;0.75;;
70132;SDS011;57495;49.922;7.966;2022-10-22T03:08:00;5.68;;;1.20;;
70132;SDS011;57495;49.922;7.966;2022-10-22T03:10:02;4.80;;;0.90;;
70132;SDS011;57495;49.922;7.966;2022-10-22T03:12:04;3.50;;;0.90;;
70132;SDS011;57495;49.922;7.966;2022-10-22T03:14:07;3.50;;;0.83;;
70132;SDS011;57495;49.922;7.966;2022-10-22T03:16:09;3.60;;;0.80;;
70132;SDS011;57495;49.922;7.966;2022-10-22T03:18:10;6.30;;;1.00;;
70132;SDS011;57495;49.922;7.966;2022-10-22T03:20:12;5.20;;;0.80;;
70132;SDS011;57495;49.922;7.966;2022-10-22T03:22:14;4.68;;;0.60;;
70132;SDS011;57495;49.922;7.966;2022-10-22T03:24:23;4.07;;;0.90;;
70132;SDS011;57495;49.922;7.966;2022-10-22T03:26:27;3.55;;;0.88;;
70132;SDS011;57495;49.922;7.966;2022-10-22T03:28:29;6.25;;;0.88;;
70132;SDS011;57495;49.922;7.966;2022-10-22T03:30:30;4.65;;;0.80;;
70132;SDS011;57495;49.922;7.966;2022-10-22T03:32:32;4.72;;;0.90;;
70132;SDS011;57495;49.922;7.966;2022-10-22T03:34:33;5.20;;;1.07;;
70132;SDS011;57495;49.922;7.966;2022-10-22T03:36:35;4.28;;;0.73;;
70132;SDS011;57495;49.922;7.966;2022-10-22T03:38:36;4.90;;;1.10;;
70132;SDS011;57495;49.922;7.966;2022-10-22T03:40:41;3.38;;;1.05;;
70132;SDS011;57495;49.922;7.966;2022-10-22T03:42:44;4.07;;;1.08;;
70132;SDS011;57495;49.922;7.966;2022-10-22T03:44:45;4.00;;;0.97;;
70132;SDS011;57495;49.922;7.966;2022-10-22T03:46:47;4.10;;;0.98;;
70132;SDS011;57495;49.922;7.966;2022-10-22T03:48:49;4.85;;;1.10;;
70132;SDS011;57495;49.922;7.966;2022-10-22T03:50:50;2.97;;;1.20;;
70132;SDS011;57495;49.922;7.966;2022-10-22T03:52:51;4.65;;;0.70;;
70132;SDS011;57495;49.922;7.966;2022-10-22T03:54:53;3.53;;;0.90;;
70132;SDS011;57495;49.922;7.966;2022-10-22T03:56:56;3.55;;;1.02;;
70132;SDS011;57495;49.922;7.966;2022-10-22T03:58:58;5.07;;;1.35;;
70132;SDS011;57495;49.922;7.966;2022-10-22T04:01:03;5.28;;;0.90;;
70132;SDS011;57495;49.922;7.966;2022-10-22T04:03:05;3.38;;;0.70;;
70132;SDS011;57495;49.922;7.966;2022-10-22T04:05:06;4.57;;;0.60;;
70132;SDS011;57495;49.922;7.966;2022-10-22T04:07:08;4.50;;;0.52;;
70132;SDS011;57495;49.922;7.966;2022-10-22T04:09:09;6.10;;;1.80;;
70132;SDS011;57495;49.922;7.966;2022-10-22T04:11:11;4.88;;;0.77;;
70132;SDS011;57495;49.922;7.966;2022-10-22T04:13:15;4.63;;;0.70;;
70132;SDS011;57495;49.922;7.966;2022-10-22T04:15:16;3.97;;;0.50;;
70132;SDS011;57495;49.922;7.966;2022-10-22T04:17:18;5.28;;;0.77;;
70132;SDS011;57495;49.922;7.966;2022-10-22T04:19:19;3.88;;;0.50;;
70132;SDS011;57495;49.922;7.966;2022-10-22T04:21:21;3.80;;;0.80;;
70132;SDS011;57495;49.922;7.966;2022-10-22T04:23:22;4.15;;;0.80;;
70132;SDS011;57495;49.922;7.966;2022-10-22T04:25:24;3.07;;;0.60;;
70132;SDS011;57495;49.922;7.966;2022-10-22T04:27:28;4.78;;;0.80;;
70132;SDS011;57495;49.922;7.966;2022-10-22T04:29:31;3.83;;;0.70;;
70132;SDS011;57495;49.922;7.966;2022-10-22T04:31:33;2.75;;;0.70;;
70132;SDS011;57495;49.922;7.966;2022-10-22T04:33:34;3.60;;;0.77;;
70132;SDS011;57495;49.922;7.966;2022-10-22T04:35:37;3.53;;;0.80;;
70132;SDS011;57495;49.922;7.966;2022-10-22T04:37:39;3.80;;;0.75;;
70132;SDS011;57495;49.922;7.966;2022-10-22T04:39:41;4.70;;;1.10;;
70132;SDS011;57495;49.922;7.966;2022-10-22T04:41:42;3.92;;;0.93;;
70132;SDS011;57495;49.922;7.966;2022-10-22T04:43:44;2.83;;;0.68;;
70132;SDS011;57495;49.922;7.966;2022-10-22T04:45:47;2.50;;;0.80;;
70132;SDS011;57495;49.922;7.966;2022-10-22T04:47:48;2.72;;;0.75;;
70132;SDS011;57495;49.922;7.966;2022-10-22T04:49:50;3.97;;;0.80;;
70132;SDS011;57495;49.922;7.966;2022-10-22T04:51:51;2.78;;;0.90;;
70132;SDS011;57495;49.922;7.966;2022-10-22T04:53:53;4.82;;;0.73;;
70132;SDS011;57495;49.922;7.966;2022-10-22T04:55:55;3.60;;;0.53;;
70132;SDS011;57495;49.922;7.966;2022-10-22T04:58:07;2.80;;;0.80;;
70132;SDS011;57495;49.922;7.966;2022-10-22T05:00:09;3.50;;;0.68;;
70132;SDS011;57495;49.922;7.966;2022-10-22T05:02:12;4.97;;;0.50;;
70132;SDS011;57495;49.922;7.966;2022-10-22T05:04:15;3.67;;;0.70;;
70132;SDS011;57495;49.922;7.966;2022-10-22T05:06:18;5.53;;;0.77;;
70132;SDS011;57495;49.922;7.966;2022-10-22T05:08:20;3.58;;;0.73;;
70132;SDS011;57495;49.922;7.966;2022-10-22T05:10:22;3.15;;;0.50;;
70132;SDS011;57495;49.922;7.966;2022-10-22T05:12:23;2.92;;;0.70;;
70132;SDS011;57495;49.922;7.966;2022-10-22T05:14:25;7.00;;;0.75;;
70132;SDS011;57495;49.922;7.966;2022-10-22T05:16:26;3.17;;;0.70;;
70132;SDS011;57495;49.922;7.966;2022-10-22T05:18:30;3.55;;;0.60;;
70132;SDS011;57495;49.922;7.966;2022-10-22T05:20:37;3.70;;;0.65;;
70132;SDS011;57495;49.922;7.966;2022-10-22T05:22:39;3.83;;;0.68;;
70132;SDS011;57495;49.922;7.966;2022-10-22T05:24:40;4.93;;;0.50;;
70132;SDS011;57495;49.922;7.966;2022-10-22T05:26:42;2.80;;;0.50;;
70132;SDS011;57495;49.922;7.966;2022-10-22T05:28:43;2.63;;;0.50;;
70132;SDS011;57495;49.922;7.966;2022-10-22T05:30:51;3.70;;;1.13;;
70132;SDS011;57495;49.922;7.966;2022-10-22T05:32:53;2.63;;;0.60;;
70132;SDS011;57495;49.922;7.966;2022-10-22T05:34:56;3.63;;;0.50;;
70132;SDS011;57495;49.922;7.966;2022-10-22T05:36:57;3.70;;;0.60;;
70132;SDS011;57495;49.922;7.966;2022-10-22T05:38:59;2.25;;;0.45;;
70132;SDS011;57495;49.922;7.966;2022-10-22T05:41:01;3.33;;;1.05;;
70132;SDS011;57495;49.922;7.966;2022-10-22T05:43:03;4.00;;;1.20;;
70132;SDS011;57495;49.922;7.966;2022-10-22T05:45:05;4.32;;;0.60;;
70132;SDS011;57495;49.922;7.966;2022-10-22T05:47:07;4.17;;;0.83;;
70132;SDS011;57495;49.922;7.966;2022-10-22T05:49:11;3.45;;;0.80;;
70132;SDS011;57495;49.922;7.966;2022-10-22T05:51:15;2.55;;;0.52;;
70132;SDS011;57495;49.922;7.966;2022-10-22T05:53:16;2.70;;;0.50;;
70132;SDS011;57495;49.922;7.966;2022-10-22T05:55:18;4.18;;;0.32;;
70132;SDS011;57495;49.922;7.966;2022-10-22T05:57:20;2.53;;;0.40;;
70132;SDS011;57495;49.922;7.966;2022-10-22T05:59:21;3.97;;;0.50;;
70132;SDS011;57495;49.922;7.966;2022-10-22T06:01:23;4.40;;;0.60;;
70132;SDS011;57495;49.922;7.966;2022-10-22T06:03:26;5.32;;;0.70;;
70132;SDS011;57495;49.922;7.966;2022-10-22T06:05:28;4.07;;;0.40;;
70132;SDS011;57495;49.922;7.966;2022-10-22T06:07:31;3.27;;;0.90;;
70132;SDS011;57495;49.922;7.966;2022-10-22T06:09:33;2.78;;;0.70;;
70132;SDS011;57495;49.922;7.966;2022-10-22T06:11:36;3.03;;;0.60;;
70132;SDS011;57495;49.922;7.966;2022-10-22T06:13:37;3.83;;;0.93;;
70132;SDS011;57495;49.922;7.966;2022-10-22T06:15:39;5.80;;;1.20;;
70132;SDS011;57495;49.922;7.966;2022-10-22T06:17:40;2.90;;;0.67;;
70132;SDS011;57495;49.922;7.966;2022-10-22T06:19:44;4.45;;;0.60;;
70132;SDS011;57495;49.922;7.966;2022-10-22T06:21:46;3.30;;;0.63;;
70132;SDS011;57495;49.922;7.966;2022-10-22T06:23:49;5.32;;;0.80;;
70132;SDS011;57495;49.922;7.966;2022-10-22T06:25:56;3.17;;;0.45;;
70132;SDS011;57495;49.922;7.966;2022-10-22T06:27:58;3.97;;;0.60;;
70132;SDS011;57495;49.922;7.966;2022-10-22T06:30:00;4.22;;;1.05;;
70132;SDS011;57495;49.922;7.966;2022-10-22T06:32:01;4.15;;;0.90;;
70132;SDS011;57495;49.922;7.966;2022-10-22T06:34:03;1.88;;;0.40;;
70132;SDS011;57495;49.922;7.966;2022-10-22T06:36:06;3.85;;;0.65;;
70132;SDS011;57495;49.922;7.966;2022-10-22T06:38:09;3.40;;;0.60;;
70132;SDS011;57495;49.922;7.966;2022-10-22T06:40:12;3.20;;;0.30;;
70132;SDS011;57495;49.922;7.966;2022-10-22T06:42:13;3.05;;;0.50;;
70132;SDS011;57495;49.922;7.966;2022-10-22T06:44:15;5.03;;;0.50;;
70132;SDS011;57495;49.922;7.966;2022-10-22T06:46:19;3.65;;;0.60;;
70132;SDS011;57495;49.922;7.966;2022-10-22T06:48:22;5.17;;;0.53;;
70132;SDS011;57495;49.922;7.966;2022-10-22T06:50:24;2.50;;;0.50;;
70132;SDS011;57495;49.922;7.966;2022-10-22T06:52:25;10.73;;;0.98;;
70132;SDS011;57495;49.922;7.966;2022-10-22T06:54:27;6.18;;;0.80;;
70132;SDS011;57495;49.922;7.966;2022-10-22T06:56:29;4.65;;;0.70;;
70132;SDS011;57495;49.922;7.966;2022-10-22T06:58:31;6.13;;;0.83;;
70132;SDS011;57495;49.922;7.966;2022-10-22T07:00:32;3.25;;;0.65;;
70132;SDS011;57495;49.922;7.966;2022-10-22T07:02:34;5.13;;;0.70;;
70132;SDS011;57495;49.922;7.966;2022-10-22T07:04:35;4.07;;;0.70;;
70132;SDS011;57495;49.922;7.966;2022-10-22T07:06:37;4.10;;;0.43;;
70132;SDS011;57495;49.922;7.966;2022-10-22T07:08:39;3.90;;;0.70;;
70132;SDS011;57495;49.922;7.966;2022-10-22T07:10:41;2.97;;;0.45;;
70132;SDS011;57495;49.922;7.966;2022-10-22T07:12:44;5.07;;;0.68;;
70132;SDS011;57495;49.922;7.966;2022-10-22T07:14:45;3.63;;;0.50;;
70132;SDS011;57495;49.922;7.966;2022-10-22T07:16:48;2.67;;;0.50;;
70132;SDS011;57495;49.922;7.966;2022-10-22T07:18:50;2.57;;;0.40;;
70132;SDS011;57495;49.922;7.966;2022-10-22T07:20:51;2.38;;;0.30;;
70132;SDS011;57495;49.922;7.966;2022-10-22T07:22:53;5.55;;;0.98;;
70132;SDS011;57495;49.922;7.966;2022-10-22T07:24:55;3.78;;;0.70;;
70132;SDS011;57495;49.922;7.966;2022-10-22T07:26:56;3.28;;;0.50;;
70132;SDS011;57495;49.922;7.966;2022-10-22T07:28:59;5.17;;;0.50;;
70132;SDS011;57495;49.922;7.966;2022-10-22T07:31:01;3.63;;;0.52;;
70132;SDS011;57495;49.922;7.966;2022-10-22T07:33:02;3.83;;;0.60;;
70132;SDS011;57495;49.922;7.966;2022-10-22T07:35:05;3.00;;;0.50;;
70132;SDS011;57495;49.922;7.966;2022-10-22T07:37:06;2.33;;;0.40;;
70132;SDS011;57495;49.922;7.966;2022-10-22T07:39:08;3.60;;;0.57;;
70132;SDS011;57495;49.922;7.966;2022-10-22T07:41:09;2.63;;;0.40;;
70132;SDS011;57495;49.922;7.966;2022-10-22T07:43:11;3.25;;;0.55;;
70132;SDS011;57495;49.922;7.966;2022-10-22T07:45:14;4.25;;;0.57;;
70132;SDS011;57495;49.922;7.966;2022-10-22T07:47:15;3.05;;;0.40;;
70132;SDS011;57495;49.922;7.966;2022-10-22T07:49:16;3.80;;;0.57;;
70132;SDS011;57495;49.922;7.966;2022-10-22T07:51:18;2.75;;;0.55;;
70132;SDS011;57495;49.922;7.966;2022-10-22T07:53:19;2.47;;;0.50;;
70132;SDS011;57495;49.922;7.966;2022-10-22T07:55:21;4.38;;;1.65;;
70132;SDS011;57495;49.922;7.966;2022-10-22T07:57:22;2.95;;;0.65;;
70132;SDS011;57495;49.922;7.966;2022-10-22T07:59:24;2.87;;;0.50;;
70132;SDS011;57495;49.922;7.966;2022-10-22T08:01:27;7.47;;;0.60;;
70132;SDS011;57495;49.922;7.966;2022-10-22T08:03:28;3.28;;;0.40;;
70132;SDS011;57495;49.922;7.966;2022-10-22T08:05:30;3.25;;;0.38;;
70132;SDS011;57495;49.922;7.966;2022-10-22T08:07:31;2.47;;;0.60;;
70132;SDS011;57495;49.922;7.966;2022-10-22T08:09:33;3.57;;;0.67;;
70132;SDS011;57495;49.922;7.966;2022-10-22T08:11:34;2.65;;;0.40;;
70132;SDS011;57495;49.922;7.966;2022-10-22T08:13:35;2.53;;;0.50;;
70132;SDS011;57495;49.922;7.966;2022-10-22T08:15:37;2.95;;;0.40;;
70132;SDS011;57495;49.922;7.966;2022-10-22T08:17:40;3.22;;;0.47;;
70132;SDS011;57495;49.922;7.966;2022-10-22T08:19:41;3.67;;;0.70;;
70132;SDS011;57495;49.922;7.966;2022-10-22T08:21:43;4.00;;;0.50;;
70132;SDS011;57495;49.922;7.966;2022-10-22T08:23:44;3.33;;;0.40;;
70132;SDS011;57495;49.922;7.966;2022-10-22T08:25:46;3.45;;;0.55;;
70132;SDS011;57495;49.922;7.966;2022-10-22T08:27:47;6.35;;;0.60;;
70132;SDS011;57495;49.922;7.966;2022-10-22T08:29:49;4.47;;;0.60;;
70132;SDS011;57495;49.922;7.966;2022-10-22T08:31:50;4.50;;;0.65;;
70132;SDS011;57495;49.922;7.966;2022-10-22T08:33:54;2.20;;;0.60;;
70132;SDS011;57495;49.922;7.966;2022-10-22T08:35:55;5.70;;;0.50;;
70132;SDS011;57495;49.922;7.966;2022-10-22T08:37:57;2.78;;;0.45;;
70132;SDS011;57495;49.922;7.966;2022-10-22T08:39:58;3.80;;;0.40;;
70132;SDS011;57495;49.922;7.966;2022-10-22T08:42:02;2.45;;;0.50;;
70132;SDS011;57495;49.922;7.966;2022-10-22T08:44:23;2.17;;;0.63;;
70132;SDS011;57495;49.922;7.966;2022-10-22T08:46:46;4.85;;;0.60;;
70132;SDS011;57495;49.922;7.966;2022-10-22T08:48:59;3.80;;;0.80;;
70132;SDS011;57495;49.922;7.966;2022-10-22T08:51:03;2.47;;;0.47;;
70132;SDS011;57495;49.922;7.966;2022-10-22T08:53:05;4.57;;;0.25;;
70132;SDS011;57495;49.922;7.966;2022-10-22T08:55:12;2.65;;;0.35;;
70132;SDS011;57495;49.922;7.966;2022-10-22T08:57:22;2.35;;;0.32;;
70132;SDS011;57495;49.922;7.966;2022-10-22T08:59:36;1.92;;;0.30;;
70132;SDS011;57495;49.922;7.966;2022-10-22T09:01:46;2.83;;;0.30;;
70132;SDS011;57495;49.922;7.966;2022-10-22T09:03:49;3.20;;;0.40;;
70132;SDS011;57495;49.922;7.966;2022-10-22T09:06:00;4.82;;;0.30;;
70132;SDS011;57495;49.922;7.966;2022-10-22T09:08:07;6.05;;;0.30;;
70132;SDS011;57495;49.922;7.966;2022-10-22T09:10:11;6.55;;;0.50;;
70132;SDS011;57495;49.922;7.966;2022-10-22T09:12:13;2.27;;;0.20;;
70132;SDS011;57495;49.922;7.966;2022-10-22T09:14:17;3.08;;;0.40;;
70132;SDS011;57495;49.922;7.966;2022-10-22T09:16:21;3.10;;;0.50;;
70132;SDS011;57495;49.922;7.966;2022-10-22T09:18:32;5.78;;;0.55;;
70132;SDS011;57495;49.922;7.966;2022-10-22T09:20:41;4.80;;;0.60;;
70132;SDS011;57495;49.922;7.966;2022-10-22T09:22:51;3.83;;;0.40;;
70132;SDS011;57495;49.922;7.966;2022-10-22T09:25:08;4.45;;;1.02;;
70132;SDS011;57495;49.922;7.966;2022-10-22T09:27:17;2.05;;;0.30;;
70132;SDS011;57495;49.922;7.966;2022-10-22T09:29:21;8.35;;;0.70;;
70132;SDS011;57495;49.922;7.966;2022-10-22T09:31:25;2.33;;;0.47;;
70132;SDS011;57495;49.922;7.966;2022-10-22T09:33:28;3.30;;;0.40;;
70132;SDS011;57495;49.922;7.966;2022-10-22T09:35:32;3.15;;;0.50;;
70132;SDS011;57495;49.922;7.966;2022-10-22T09:37:34;4.05;;;0.52;;
70132;SDS011;57495;49.922;7.966;2022-10-22T09:39:38;3.60;;;0.43;;
70132;SDS011;57495;49.922;7.966;2022-10-22T09:41:41;3.67;;;0.45;;
70132;SDS011;57495;49.922;7.966;2022-10-22T09:43:45;3.90;;;0.37;;
70132;SDS011;57495;49.922;7.966;2022-10-22T09:45:47;3.35;;;0.45;;
70132;SDS011;57495;49.922;7.966;2022-10-22T09:48:02;4.93;;;0.43;;
70132;SDS011;57495;49.922;7.966;2022-10-22T09:50:21;3.38;;;0.30;;
70132;SDS011;57495;49.922;7.966;2022-10-22T09:52:27;3.15;;;0.50;;
70132;SDS011;57495;49.922;7.966;2022-10-22T09:54:38;3.97;;;0.43;;
70132;SDS011;57495;49.922;7.966;2022-10-22T09:56:47;2.83;;;0.70;;
70132;SDS011;57495;49.922;7.966;2022-10-22T09:58:53;3.75;;;0.80;;
70132;SDS011;57495;49.922;7.966;2022-10-22T10:00:57;4.88;;;0.65;;
70132;SDS011;57495;49.922;7.966;2022-10-22T10:03:00;4.70;;;0.35;;
70132;SDS011;57495;49.922;7.966;2022-10-22T10:05:02;2.70;;;0.30;;
70132;SDS011;57495;49.922;7.966;2022-10-22T10:07:11;4.50;;;0.50;;
70132;SDS011;57495;49.922;7.966;2022-10-22T10:09:17;4.30;;;0.55;;
70132;SDS011;57495;49.922;7.966;2022-10-22T10:11:25;2.03;;;0.28;;
70132;SDS011;57495;49.922;7.966;2022-10-22T10:13:37;4.50;;;0.50;;
70132;SDS011;57495;49.922;7.966;2022-10-22T10:15:48;3.53;;;0.60;;
70132;SDS011;57495;49.922;7.966;2022-10-22T10:17:57;4.18;;;0.52;;
70132;SDS011;57495;49.922;7.966;2022-10-22T10:20:12;6.65;;;0.60;;
70132;SDS011;57495;49.922;7.966;2022-10-22T10:22:26;3.95;;;1.10;;
70132;SDS011;57495;49.922;7.966;2022-10-22T10:24:44;2.55;;;0.40;;
70132;SDS011;57495;49.922;7.966;2022-10-22T10:26:59;2.60;;;0.37;;
70132;SDS011;57495;49.922;7.966;2022-10-22T10:29:09;3.58;;;0.43;;
70132;SDS011;57495;49.922;7.966;2022-10-22T10:31:24;3.42;;;0.50;;
70132;SDS011;57495;49.922;7.966;2022-10-22T10:33:40;3.15;;;0.57;;
70132;SDS011;57495;49.922;7.966;2022-10-22T10:35:51;4.50;;;0.80;;
70132;SDS011;57495;49.922;7.966;2022-10-22T10:38:02;4.40;;;0.50;;
70132;SDS011;57495;49.922;7.966;2022-10-22T10:40:23;6.53;;;0.90;;
70132;SDS011;57495;49.922;7.966;2022-10-22T10:42:35;5.18;;;0.90;;
70132;SDS011;57495;49.922;7.966;2022-10-22T10:44:46;5.05;;;0.40;;
70132;SDS011;57495;49.922;7.966;2022-10-22T10:46:58;4.03;;;0.50;;
70132;SDS011;57495;49.922;7.966;2022-10-22T10:49:10;2.63;;;0.43;;
70132;SDS011;57495;49.922;7.966;2022-10-22T10:51:20;5.55;;;0.70;;
70132;SDS011;57495;49.922;7.966;2022-10-22T10:53:46;2.90;;;0.55;;
70132;SDS011;57495;49.922;7.966;2022-10-22T10:56:00;3.50;;;0.55;;
70132;SDS011;57495;49.922;7.966;2022-10-22T10:58:12;4.22;;;0.65;;
70132;SDS011;57495;49.922;7.966;2022-10-22T11:00:21;2.77;;;0.30;;
70132;SDS011;57495;49.922;7.966;2022-10-22T11:02:29;7.10;;;0.55;;
70132;SDS011;57495;49.922;7.966;2022-10-22T11:04:47;2.95;;;0.30;;
70132;SDS011;57495;49.922;7.966;2022-10-22T11:07:00;3.83;;;0.50;;
70132;SDS011;57495;49.922;7.966;2022-10-22T11:09:06;3.75;;;0.50;;
70132;SDS011;57495;49.922;7.966;2022-10-22T11:11:16;5.20;;;0.60;;
70132;SDS011;57495;49.922;7.966;2022-10-22T11:13:22;2.75;;;0.63;;
70132;SDS011;57495;49.922;7.966;2022-10-22T11:15:30;4.28;;;0.65;;
70132;SDS011;57495;49.922;7.966;2022-10-22T11:17:35;3.20;;;0.82;;
70132;SDS011;57495;49.922;7.966;2022-10-22T11:19:42;4.75;;;0.70;;
70132;SDS011;57495;49.922;7.966;2022-10-22T11:21:49;5.27;;;0.60;;
70132;SDS011;57495;49.922;7.966;2022-10-22T11:23:54;6.32;;;0.63;;
70132;SDS011;57495;49.922;7.966;2022-10-22T11:26:04;4.60;;;0.95;;
70132;SDS011;57495;49.922;7.966;2022-10-22T11:28:13;3.90;;;0.70;;
70132;SDS011;57495;49.922;7.966;2022-10-22T11:30:21;4.28;;;0.57;;
70132;SDS011;57495;49.922;7.966;2022-10-22T11:32:25;4.87;;;0.90;;
70132;SDS011;57495;49.922;7.966;2022-10-22T11:34:29;9.13;;;1.20;;
70132;SDS011;57495;49.922;7.966;2022-10-22T11:36:36;6.30;;;0.63;;
70132;SDS011;57495;49.922;7.966;2022-10-22T11:38:39;3.90;;;0.50;;
70132;SDS011;57495;49.922;7.966;2022-10-22T11:40:42;6.28;;;1.10;;
70132;SDS011;57495;49.922;7.966;2022-10-22T11:42:54;6.90;;;0.97;;
70132;SDS011;57495;49.922;7.966;2022-10-22T11:44:58;7.38;;;0.68;;
70132;SDS011;57495;49.922;7.966;2022-10-22T11:47:07;4.97;;;1.13;;
70132;SDS011;57495;49.922;7.966;2022-10-22T11:49:16;4.53;;;0.60;;
70132;SDS011;57495;49.922;7.966;2022-10-22T11:51:30;6.13;;;0.90;;
70132;SDS011;57495;49.922;7.966;2022-10-22T11:53:35;3.97;;;0.80;;
70132;SDS011;57495;49.922;7.966;2022-10-22T11:55:41;3.05;;;0.60;;
70132;SDS011;57495;49.922;7.966;2022-10-22T11:57:46;7.38;;;1.00;;
70132;SDS011;57495;49.922;7.966;2022-10-22T11:59:50;5.70;;;0.88;;
70132;SDS011;57495;49.922;7.966;2022-10-22T12:01:54;5.07;;;0.80;;
70132;SDS011;57495;49.922;7.966;2022-10-22T12:04:15;5.60;;;0.90;;
70132;SDS011;57495;49.922;7.966;2022-10-22T12:06:20;4.35;;;1.33;;
70132;SDS011;57495;49.922;7.966;2022-10-22T12:08:26;6.75;;;1.90;;
70132;SDS011;57495;49.922;7.966;2022-10-22T12:10:29;4.70;;;1.33;;
70132;SDS011;57495;49.922;7.966;2022-10-22T12:12:36;6.10;;;1.80;;
70132;SDS011;57495;49.922;7.966;2022-10-22T12:14:51;5.03;;;1.67;;
70132;SDS011;57495;49.922;7.966;2022-10-22T12:16:54;4.85;;;1.85;;
70132;SDS011;57495;49.922;7.966;2022-10-22T12:19:00;6.43;;;1.77;;
70132;SDS011;57495;49.922;7.966;2022-10-22T12:21:05;6.40;;;2.03;;
70132;SDS011;57495;49.922;7.966;2022-10-22T12:23:10;4.68;;;1.55;;
70132;SDS011;57495;49.922;7.966;2022-10-22T12:25:17;5.93;;;2.13;;
70132;SDS011;57495;49.922;7.966;2022-10-22T12:27:21;7.05;;;1.83;;
70132;SDS011;57495;49.922;7.966;2022-10-22T12:29:24;4.68;;;1.65;;
70132;SDS011;57495;49.922;7.966;2022-10-22T12:31:29;5.88;;;1.75;;